createdAt,value
2018-03-02T00:01:30.840Z,35.60
2018-03-02T00:03:57.062Z,35.90
2018-03-02T00:06:23.249Z,35.80
2018-03-02T00:08:49.548Z,36.00
2018-03-02T00:11:16.477Z,36.10
2018-03-02T00:13:43.003Z,36.10
2018-03-02T00:16:09.170Z,36.20
2018-03-02T00:18:35.367Z,35.70
2018-03-02T00:21:01.643Z,36.20
2018-03-02T00:23:27.808Z,36.20
2018-03-02T00:25:54.013Z,36.20
2018-03-02T00:28:20.924Z,36.50
2018-03-02T00:30:47.223Z,36.30
2018-03-02T00:33:13.447Z,36.30
2018-03-02T00:35:39.650Z,36.50
2018-03-02T00:38:05.883Z,36.20
2018-03-02T00:40:33.494Z,36.90
2018-03-02T00:42:59.729Z,36.50
2018-03-02T00:45:25.903Z,36.80
2018-03-02T00:47:52.904Z,37.30
2018-03-02T00:50:19.111Z,37.30
2018-03-02T00:52:45.338Z,37.60
2018-03-02T00:55:11.522Z,37.50
2018-03-02T00:57:38.476Z,37.50
2018-03-02T01:00:05.440Z,37.40
2018-03-02T01:02:31.669Z,37.30
2018-03-02T01:04:57.908Z,37.70
2018-03-02T01:07:24.191Z,37.80
2018-03-02T01:09:50.386Z,37.60
2018-03-02T01:12:16.642Z,37.90
2018-03-02T01:14:42.970Z,38.10
2018-03-02T01:17:09.193Z,37.90
2018-03-02T01:19:35.383Z,38.30
2018-03-02T01:22:01.645Z,38.40
2018-03-02T01:24:27.858Z,38.50
2018-03-02T01:26:54.074Z,38.50
2018-03-02T01:29:20.332Z,38.20
2018-03-02T01:31:47.335Z,38.20
2018-03-02T01:34:14.268Z,38.90
2018-03-02T01:36:41.259Z,38.90
2018-03-02T01:39:07.561Z,38.90
2018-03-02T01:41:33.798Z,39.00
2018-03-02T01:44:00.030Z,39.30
2018-03-02T01:46:26.186Z,38.80
2018-03-02T01:48:52.444Z,38.90
2018-03-02T01:51:30.836Z,39.10
2018-03-02T01:53:57.180Z,39.60
2018-03-02T01:56:23.371Z,39.70
2018-03-02T01:58:49.552Z,39.60
2018-03-02T02:01:16.538Z,39.50
2018-03-02T02:03:42.768Z,39.60
2018-03-02T02:06:09.028Z,40.00
2018-03-02T02:08:35.206Z,40.00
2018-03-02T02:11:02.178Z,40.00
2018-03-02T02:13:28.910Z,39.40
2018-03-02T02:15:55.165Z,39.50
2018-03-02T02:18:21.431Z,40.10
2018-03-02T02:20:47.661Z,40.00
2018-03-02T02:23:13.838Z,40.00
2018-03-02T02:25:40.331Z,40.60
2018-03-02T02:28:06.582Z,39.90
2018-03-02T02:30:32.808Z,39.90
2018-03-02T02:32:59.682Z,39.80
2018-03-02T02:35:25.875Z,39.80
2018-03-02T02:37:52.840Z,39.90
2018-03-02T02:40:20.765Z,40.00
2018-03-02T02:42:46.964Z,40.00
2018-03-02T02:45:14.073Z,40.20
2018-03-02T02:47:41.584Z,40.90
2018-03-02T02:50:07.746Z,40.90
2018-03-02T02:52:34.672Z,40.80
2018-03-02T02:55:00.864Z,40.70
2018-03-02T02:57:27.097Z,40.70
2018-03-02T02:59:53.333Z,41.00
2018-03-02T03:02:19.566Z,41.00
2018-03-02T03:04:45.777Z,41.40
2018-03-02T03:07:12.057Z,41.20
2018-03-02T03:09:38.276Z,41.00
2018-03-02T03:12:04.479Z,40.80
2018-03-02T03:14:30.679Z,40.80
2018-03-02T03:16:56.927Z,41.10
2018-03-02T03:19:23.204Z,41.20
2018-03-02T03:21:49.396Z,41.00
2018-03-02T03:24:15.610Z,41.50
2018-03-02T03:26:41.791Z,41.60
2018-03-02T03:29:08.779Z,41.50
2018-03-02T03:31:34.985Z,41.00
2018-03-02T03:34:01.242Z,41.50
2018-03-02T03:36:27.693Z,41.60
2018-03-02T03:38:53.943Z,41.80
2018-03-02T03:41:20.189Z,41.80
2018-03-02T03:43:47.198Z,42.00
2018-03-02T03:46:14.355Z,42.00
2018-03-02T03:48:40.634Z,41.70
2018-03-02T03:51:07.532Z,42.20
2018-03-02T03:53:33.723Z,42.10
2018-03-02T03:55:59.924Z,41.90
2018-03-02T03:58:26.843Z,42.30
2018-03-02T04:00:53.032Z,42.20
2018-03-02T04:03:19.184Z,42.10
2018-03-02T04:05:45.439Z,42.50
2018-03-02T04:08:11.608Z,42.40
2018-03-02T04:10:37.828Z,42.60
2018-03-02T04:13:04.002Z,42.20
2018-03-02T04:15:30.212Z,42.40
2018-03-02T04:17:56.402Z,42.30
2018-03-02T04:20:23.348Z,44.40
2018-03-02T04:22:50.291Z,42.80
2018-03-02T04:25:17.263Z,43.40
2018-03-02T04:27:43.439Z,43.30
2018-03-02T04:30:09.682Z,43.00
2018-03-02T04:32:36.588Z,43.10
2018-03-02T04:35:02.802Z,43.00
2018-03-02T04:37:29.002Z,43.20
2018-03-02T04:39:55.909Z,43.40
2018-03-02T04:42:22.168Z,43.40
2018-03-02T04:44:49.123Z,43.60
2018-03-02T04:47:16.033Z,43.70
2018-03-02T04:49:42.235Z,43.70
2018-03-02T04:52:08.825Z,43.70
2018-03-02T04:54:35.810Z,43.40
2018-03-02T04:57:01.992Z,42.90
2018-03-02T04:59:28.929Z,43.50
2018-03-02T05:01:55.133Z,43.10
2018-03-02T05:04:21.379Z,43.50
2018-03-02T05:06:47.568Z,43.00
2018-03-02T05:09:13.728Z,43.40
2018-03-02T05:11:39.940Z,43.70
2018-03-02T05:14:06.122Z,43.30
2018-03-02T05:16:33.073Z,43.80
2018-03-02T05:18:59.993Z,43.90
2018-03-02T05:21:26.157Z,43.80
2018-03-02T05:23:52.365Z,43.40
2018-03-02T05:26:19.253Z,43.90
2018-03-02T05:28:45.542Z,43.30
2018-03-02T05:31:12.482Z,43.90
2018-03-02T05:33:39.429Z,44.30
2018-03-02T05:36:06.396Z,44.20
2018-03-02T05:38:32.588Z,44.20
2018-03-02T05:40:58.794Z,44.10
2018-03-02T05:43:25.032Z,43.70
2018-03-02T05:45:51.239Z,44.10
2018-03-02T05:48:17.560Z,43.80
2018-03-02T05:50:43.830Z,43.80
2018-03-02T05:53:10.899Z,43.80
2018-03-02T05:55:38.095Z,44.40
2018-03-02T05:58:04.328Z,43.90
2018-03-02T06:00:30.582Z,44.50
2018-03-02T06:02:57.060Z,44.30
2018-03-02T06:05:23.374Z,44.20
2018-03-02T06:07:50.362Z,44.00
2018-03-02T06:10:16.749Z,43.80
2018-03-02T06:12:43.958Z,44.50
2018-03-02T06:15:10.168Z,44.50
2018-03-02T06:17:36.430Z,43.90
2018-03-02T06:20:02.794Z,44.30
2018-03-02T06:22:29.852Z,44.50
2018-03-02T06:24:56.617Z,44.50
2018-03-02T06:27:22.844Z,44.50
2018-03-02T06:29:49.288Z,44.00
2018-03-02T06:32:15.532Z,44.40
2018-03-02T06:34:41.893Z,44.20
2018-03-02T06:37:08.077Z,44.70
2018-03-02T06:39:35.348Z,44.40
2018-03-02T06:42:01.647Z,44.10
2018-03-02T06:44:28.884Z,44.30
2018-03-02T06:46:55.979Z,44.10
2018-03-02T06:49:22.192Z,44.00
2018-03-02T06:51:48.459Z,44.20
2018-03-02T06:54:14.706Z,43.60
2018-03-02T06:56:40.915Z,44.10
2018-03-02T06:59:07.184Z,44.00
2018-03-02T07:01:33.417Z,43.70
2018-03-02T07:04:00.759Z,44.10
2018-03-02T07:06:27.702Z,44.00
2018-03-02T07:08:55.215Z,43.40
2018-03-02T07:11:21.443Z,43.30
2018-03-02T07:13:47.723Z,44.00
2018-03-02T07:16:14.810Z,44.40
2018-03-02T07:18:41.101Z,43.80
2018-03-02T07:21:08.047Z,44.40
2018-03-02T07:23:34.995Z,44.30
2018-03-02T07:26:02.000Z,44.20
2018-03-02T07:28:28.257Z,44.10
2018-03-02T07:30:54.452Z,43.70
2018-03-02T07:33:20.778Z,44.30
2018-03-02T07:35:46.985Z,44.20
2018-03-02T07:38:13.249Z,44.10
2018-03-02T07:40:39.581Z,44.10
2018-03-02T07:43:05.848Z,43.70
2018-03-02T07:45:32.890Z,43.80
2018-03-02T07:47:59.085Z,43.90
2018-03-02T07:50:25.434Z,43.60
2018-03-02T07:52:52.429Z,43.70
2018-03-02T07:55:18.775Z,43.70
2018-03-02T07:57:45.042Z,43.10
2018-03-02T08:00:11.328Z,43.50
2018-03-02T08:02:37.546Z,43.40
2018-03-02T08:05:03.776Z,43.60
2018-03-02T08:07:30.090Z,43.60
2018-03-02T08:09:56.358Z,42.90
2018-03-02T08:12:22.638Z,43.40
2018-03-02T08:14:48.874Z,43.50
2018-03-02T08:17:15.837Z,43.20
2018-03-02T08:19:42.261Z,43.20
2018-03-02T08:22:09.234Z,43.20
2018-03-02T08:24:36.223Z,42.60
2018-03-02T08:27:02.448Z,42.20
2018-03-02T08:29:29.595Z,42.10
2018-03-02T08:31:55.827Z,42.20
2018-03-02T08:34:22.097Z,41.70
2018-03-02T08:36:49.419Z,41.50
2018-03-02T08:39:15.644Z,41.50
2018-03-02T08:41:41.820Z,41.10
2018-03-02T08:44:08.121Z,41.60
2018-03-02T08:46:35.362Z,41.50
2018-03-02T08:49:01.609Z,42.30
2018-03-02T08:51:28.580Z,41.70
2018-03-02T08:53:54.788Z,41.60
2018-03-02T08:56:21.787Z,41.60
2018-03-02T08:58:48.841Z,40.40
2018-03-02T09:01:15.117Z,40.70
2018-03-02T09:03:42.072Z,40.70
2018-03-02T09:06:08.325Z,41.40
2018-03-02T09:08:34.571Z,40.70
2018-03-02T09:11:00.815Z,40.70
2018-03-02T09:13:27.932Z,41.10
2018-03-02T09:15:54.199Z,40.70
2018-03-02T09:18:21.216Z,40.70
2018-03-02T09:20:47.501Z,40.70
2018-03-02T09:23:14.470Z,73.50
2018-03-02T09:25:40.793Z,51.40
2018-03-02T09:28:07.718Z,42.80
2018-03-02T09:30:33.938Z,42.60
2018-03-02T09:33:00.160Z,43.80
2018-03-02T09:35:26.369Z,39.30
2018-03-02T09:37:52.630Z,36.00
2018-03-02T09:40:19.601Z,38.50
2018-03-02T09:42:46.568Z,39.30
2018-03-02T09:45:12.779Z,39.70
2018-03-02T09:47:39.750Z,40.60
2018-03-02T09:50:06.063Z,40.50
2018-03-02T09:52:32.320Z,40.90
2018-03-02T09:54:58.481Z,40.60
2018-03-02T09:57:24.701Z,41.20
2018-03-02T09:59:51.054Z,40.50
2018-03-02T10:02:17.270Z,41.10
2018-03-02T10:04:43.528Z,41.00
2018-03-02T10:07:10.484Z,41.10
2018-03-02T10:09:36.734Z,40.60
2018-03-02T10:12:02.986Z,40.60
2018-03-02T10:14:29.211Z,40.40
2018-03-02T10:16:55.404Z,40.60
2018-03-02T10:19:21.623Z,40.60
2018-03-02T10:21:48.810Z,41.20
2018-03-02T10:24:15.045Z,40.60
2018-03-02T10:26:41.686Z,40.60
2018-03-02T10:29:07.907Z,40.60
2018-03-02T10:31:34.461Z,40.60
2018-03-02T10:34:00.679Z,40.60
2018-03-02T10:36:26.932Z,40.60
2018-03-02T10:38:53.142Z,40.50
2018-03-02T10:41:19.338Z,40.60
2018-03-02T10:43:45.548Z,40.60
2018-03-02T10:46:11.777Z,41.20
2018-03-02T10:48:38.844Z,40.80
2018-03-02T10:51:05.052Z,40.80
2018-03-02T10:53:32.089Z,40.40
2018-03-02T10:55:58.295Z,39.30
2018-03-02T10:58:24.586Z,39.00
2018-03-02T11:00:50.871Z,38.10
2018-03-02T11:03:22.622Z,38.00
2018-03-02T11:05:49.632Z,38.20
2018-03-02T11:08:15.858Z,37.50
2018-03-02T11:10:42.113Z,37.60
2018-03-02T11:13:08.622Z,37.70
2018-03-02T11:15:34.840Z,37.60
2018-03-02T11:18:01.415Z,37.70
2018-03-02T11:20:28.142Z,38.10
2018-03-02T11:22:55.792Z,38.10
2018-03-02T11:25:22.082Z,38.90
2018-03-02T11:27:49.094Z,38.60
2018-03-02T11:30:15.346Z,38.70
2018-03-02T11:32:41.543Z,37.80
2018-03-02T11:35:07.766Z,37.70
2018-03-02T11:37:34.002Z,37.50
2018-03-02T11:40:00.223Z,37.60
2018-03-02T11:42:26.469Z,37.60
2018-03-02T11:44:52.668Z,38.00
2018-03-02T11:47:18.881Z,37.70
2018-03-02T11:49:47.707Z,36.50
2018-03-02T11:52:13.938Z,36.80
2018-03-02T11:54:40.202Z,37.20
2018-03-02T11:57:07.174Z,37.30
2018-03-02T11:59:34.116Z,37.30
2018-03-02T12:02:01.070Z,37.00
2018-03-02T12:04:27.262Z,36.70
2018-03-02T12:06:53.536Z,37.20
2018-03-02T12:09:34.790Z,36.30
2018-03-02T12:12:01.770Z,36.50
2018-03-02T12:14:27.976Z,36.00
2018-03-02T12:16:54.987Z,37.20
2018-03-02T12:19:21.250Z,36.40
2018-03-02T12:21:47.539Z,36.60
2018-03-02T12:24:13.728Z,36.90
2018-03-02T12:26:39.958Z,36.50
2018-03-02T12:29:06.234Z,36.50
2018-03-02T12:31:32.416Z,36.00
2018-03-02T12:33:58.638Z,36.40
2018-03-02T12:36:24.851Z,36.40
2018-03-02T12:38:51.924Z,36.50
2018-03-02T12:41:18.871Z,36.40
2018-03-02T12:43:45.681Z,36.40
2018-03-02T12:46:12.983Z,36.30
2018-03-02T12:48:39.168Z,36.20
2018-03-02T12:51:06.501Z,37.10
2018-03-02T12:53:33.101Z,37.00
2018-03-02T12:55:59.665Z,36.70
2018-03-02T12:58:26.200Z,36.70
2018-03-02T13:00:52.423Z,36.70
2018-03-02T13:03:19.881Z,36.20
2018-03-02T13:05:46.130Z,36.00
2018-03-02T13:08:14.266Z,36.30
2018-03-02T13:10:40.558Z,36.50
2018-03-02T13:13:07.553Z,37.00
2018-03-02T13:15:33.792Z,36.80
2018-03-02T13:18:00.926Z,36.30
2018-03-02T13:20:27.179Z,36.20
2018-03-02T13:22:53.426Z,36.90
2018-03-02T13:25:19.668Z,36.40
2018-03-02T13:27:59.106Z,37.10
2018-03-02T13:30:26.084Z,36.50
2018-03-02T13:33:04.708Z,36.00
2018-03-02T13:35:31.054Z,42.40
2018-03-02T13:37:57.308Z,44.90
2018-03-02T13:40:35.769Z,44.30
2018-03-02T13:43:02.059Z,44.80
2018-03-02T13:45:28.322Z,33.10
2018-03-02T13:50:58.562Z,33.80
2018-03-02T13:53:24.898Z,34.20
2018-03-02T13:55:51.114Z,34.70
2018-03-02T13:58:18.112Z,35.30
2018-03-02T14:00:44.357Z,35.20
2018-03-02T14:03:22.975Z,35.20
2018-03-02T14:05:49.212Z,34.90
2018-03-02T14:08:15.430Z,34.90
2018-03-02T14:10:41.655Z,35.50
2018-03-02T14:13:07.883Z,35.10
2018-03-02T14:15:34.093Z,35.00
2018-03-02T14:18:00.324Z,34.50
2018-03-02T14:20:26.951Z,34.70
2018-03-02T14:22:53.195Z,38.10
2018-03-02T14:25:19.746Z,34.10
2018-03-02T14:27:45.949Z,32.80
2018-03-02T14:30:12.137Z,34.10
2018-03-02T14:32:39.179Z,34.80
2018-03-02T14:35:06.144Z,35.40
2018-03-02T14:37:33.811Z,35.50
2018-03-02T14:40:00.453Z,35.30
2018-03-02T14:42:28.435Z,35.70
2018-03-02T14:44:54.696Z,35.50
2018-03-02T14:47:20.974Z,35.90
2018-03-02T14:49:47.179Z,36.10
2018-03-02T14:52:13.385Z,35.80
2018-03-02T14:54:39.702Z,35.60
2018-03-02T14:57:06.031Z,35.40
2018-03-02T14:59:32.356Z,35.50
2018-03-02T15:01:58.610Z,35.80
2018-03-02T15:04:24.851Z,36.10
2018-03-02T15:06:51.249Z,36.20
2018-03-02T15:09:19.618Z,36.00
2018-03-02T15:11:45.840Z,36.70
2018-03-02T15:14:12.295Z,36.10
2018-03-02T15:16:38.601Z,36.30
2018-03-02T15:19:05.601Z,37.20
2018-03-02T15:21:31.962Z,37.10
2018-03-02T15:23:58.185Z,37.10
2018-03-02T15:26:24.500Z,37.40
2018-03-02T15:28:50.835Z,37.50
2018-03-02T15:31:17.051Z,37.70
2018-03-02T15:33:43.353Z,38.10
2018-03-02T15:36:09.624Z,38.30
2018-03-02T15:38:35.822Z,38.00
2018-03-02T15:41:02.463Z,37.70
2018-03-02T15:43:29.141Z,37.80
2018-03-02T15:45:55.784Z,37.80
2018-03-02T15:48:22.377Z,37.80
2018-03-02T15:50:49.380Z,38.30
2018-03-02T15:53:16.324Z,38.60
2018-03-02T15:55:44.359Z,38.60
2018-03-02T15:58:10.573Z,38.10
2018-03-02T16:00:37.041Z,38.00
2018-03-02T16:03:03.276Z,38.10
2018-03-02T16:05:29.474Z,38.80
2018-03-02T16:07:55.675Z,38.80
2018-03-02T16:10:22.001Z,39.20
2018-03-02T16:12:48.218Z,39.50
2018-03-02T16:15:14.788Z,38.80
2018-03-02T16:17:40.999Z,39.20
2018-03-02T16:20:07.242Z,39.20
2018-03-02T16:22:33.448Z,39.40
2018-03-02T16:24:59.672Z,39.20
2018-03-02T16:27:26.609Z,39.50
2018-03-02T16:29:53.624Z,39.50
2018-03-02T16:32:19.852Z,39.50
2018-03-02T16:34:46.055Z,39.50
2018-03-02T16:37:12.298Z,39.60
2018-03-02T16:39:38.589Z,39.40
2018-03-02T16:42:04.796Z,39.10
2018-03-02T16:44:31.788Z,39.80
2018-03-02T16:46:58.028Z,39.80
2018-03-02T16:49:24.348Z,39.80
2018-03-02T16:51:50.563Z,40.00
2018-03-02T16:54:17.721Z,39.70
2018-03-02T16:56:44.043Z,39.70
2018-03-02T16:59:10.210Z,39.70
2018-03-02T17:01:36.449Z,39.80
2018-03-02T17:04:02.722Z,40.00
2018-03-02T17:06:29.152Z,40.10
2018-03-02T17:08:55.380Z,40.10
2018-03-02T17:11:21.649Z,40.30
2018-03-02T17:13:48.854Z,40.30
2018-03-02T17:16:15.807Z,40.70
2018-03-02T17:18:42.035Z,40.70
2018-03-02T17:21:08.996Z,40.70
2018-03-02T17:23:35.224Z,40.50
2018-03-02T17:26:01.469Z,41.00
2018-03-02T17:28:27.820Z,40.90
2018-03-02T17:30:54.071Z,40.80
2018-03-02T17:33:20.371Z,40.70
2018-03-02T17:35:46.643Z,40.40
2018-03-02T17:38:13.669Z,41.50
2018-03-02T17:40:39.882Z,41.10
2018-03-02T17:43:06.102Z,40.80
2018-03-02T17:45:32.365Z,40.70
2018-03-02T17:47:58.543Z,41.10
2018-03-02T17:50:24.798Z,41.00
2018-03-02T17:52:51.065Z,41.40
2018-03-02T17:55:18.498Z,41.00
2018-03-02T17:57:44.754Z,41.10
2018-03-02T18:00:11.849Z,41.70
2018-03-02T18:02:38.772Z,42.00
2018-03-02T18:05:04.980Z,41.90
2018-03-02T18:07:32.120Z,41.70
2018-03-02T18:09:58.782Z,41.60
2018-03-02T18:12:25.815Z,41.70
2018-03-02T18:14:53.339Z,41.70
2018-03-02T18:17:19.613Z,41.70
2018-03-02T18:19:46.587Z,42.30
2018-03-02T18:22:12.851Z,42.20
2018-03-02T18:24:39.158Z,41.70
2018-03-02T18:27:05.439Z,42.30
2018-03-02T18:29:32.811Z,42.30
2018-03-02T18:31:59.239Z,41.70
2018-03-02T18:34:26.329Z,42.30
2018-03-02T18:36:52.647Z,41.70
2018-03-02T18:39:18.948Z,42.30
2018-03-02T18:41:45.893Z,42.30
2018-03-02T18:44:13.820Z,42.80
2018-03-02T18:46:40.960Z,42.50
2018-03-02T18:49:07.218Z,42.90
2018-03-02T18:51:33.428Z,43.40
2018-03-02T18:53:59.743Z,43.80
2018-03-02T18:56:25.958Z,45.20
2018-03-02T18:58:52.259Z,45.70
2018-03-02T19:01:19.223Z,46.20
2018-03-02T19:03:45.437Z,46.20
2018-03-02T19:06:12.381Z,46.90
2018-03-02T19:08:39.385Z,47.00
2018-03-02T19:11:05.660Z,46.70
2018-03-02T19:13:31.909Z,46.50
2018-03-02T19:15:58.148Z,46.80
2018-03-02T19:18:24.376Z,47.20
2018-03-02T19:20:50.681Z,47.70
2018-03-02T19:23:17.735Z,47.80
2018-03-02T19:25:44.611Z,47.80
2018-03-02T19:28:10.802Z,47.00
2018-03-02T19:30:37.859Z,48.00
2018-03-02T19:33:04.868Z,48.30
2018-03-02T19:35:31.126Z,48.20
2018-03-02T19:37:58.071Z,49.00
2018-03-02T19:40:25.073Z,49.40
2018-03-02T19:42:51.490Z,49.60
2018-03-02T19:45:17.820Z,49.60
2018-03-02T19:47:44.212Z,49.90
2018-03-02T19:50:12.013Z,50.60
2018-03-02T19:52:39.366Z,51.50
2018-03-02T19:55:05.670Z,50.70
2018-03-02T19:57:32.666Z,51.30
2018-03-02T19:59:58.956Z,51.30
2018-03-02T20:02:25.197Z,53.80
2018-03-02T20:04:51.440Z,56.20
2018-03-02T20:07:17.687Z,56.60
2018-03-02T20:09:43.966Z,59.40
2018-03-02T20:12:10.964Z,63.30
2018-03-02T20:14:37.283Z,63.40
2018-03-02T20:17:03.522Z,67.60
2018-03-02T20:19:29.774Z,71.40
2018-03-02T20:21:56.868Z,72.40
2018-03-02T20:24:23.165Z,73.60
2018-03-02T20:26:49.459Z,74.00
2018-03-02T20:29:15.766Z,74.50
2018-03-02T20:31:42.023Z,74.10
2018-03-02T20:34:09.084Z,74.20
2018-03-02T20:36:35.327Z,74.60
2018-03-02T20:39:01.592Z,75.10
2018-03-02T20:41:28.640Z,74.60
2018-03-02T20:43:54.868Z,74.50
2018-03-02T20:46:22.012Z,74.80
2018-03-02T20:48:48.980Z,73.90
2018-03-02T20:51:15.212Z,73.30
2018-03-02T20:53:41.506Z,73.90
2018-03-02T20:56:08.449Z,73.20
2018-03-02T20:58:34.814Z,73.20
2018-03-02T21:01:01.067Z,73.40
2018-03-02T21:03:27.980Z,72.50
2018-03-02T21:05:54.722Z,72.50
2018-03-02T21:08:21.058Z,73.10
2018-03-02T21:10:47.269Z,73.20
2018-03-02T21:13:14.495Z,74.50
2018-03-02T21:15:41.836Z,74.50
2018-03-02T21:18:08.836Z,73.60
2018-03-02T21:20:35.327Z,74.30
2018-03-02T21:23:01.765Z,73.90
2018-03-02T21:25:29.764Z,73.80
2018-03-02T21:27:56.164Z,73.50
2018-03-02T21:30:22.429Z,73.80
2018-03-02T21:32:49.439Z,73.80
2018-03-02T21:35:15.711Z,73.90
2018-03-02T21:37:42.837Z,74.20
2018-03-02T21:40:09.087Z,72.80
2018-03-02T21:42:36.146Z,72.60
2018-03-02T21:45:02.452Z,73.30
2018-03-02T21:47:28.891Z,73.60
2018-03-02T21:49:55.878Z,74.30
2018-03-02T21:52:22.117Z,74.20
2018-03-02T21:54:49.910Z,73.10
2018-03-02T21:57:16.185Z,73.00
2018-03-02T21:59:42.420Z,72.70
2018-03-02T22:02:08.640Z,73.50
2018-03-02T22:04:35.596Z,73.20
2018-03-02T22:07:01.816Z,72.90
2018-03-02T22:09:28.862Z,73.60
2018-03-02T22:11:55.825Z,74.10
2018-03-02T22:14:22.171Z,73.30
2018-03-02T22:16:48.397Z,73.30
2018-03-02T22:19:14.636Z,74.00
2018-03-02T22:21:41.031Z,74.30
2018-03-02T22:24:08.036Z,74.30
2018-03-02T22:26:34.226Z,73.10
2018-03-02T22:29:00.452Z,73.90
2018-03-02T22:31:26.685Z,73.90
2018-03-02T22:33:52.956Z,74.30
2018-03-02T22:36:19.219Z,74.90
2018-03-02T22:38:47.183Z,75.10
2018-03-02T22:41:14.246Z,75.80
2018-03-02T22:43:41.583Z,76.40
2018-03-02T22:46:07.919Z,75.60
2018-03-02T22:48:35.479Z,76.10
2018-03-02T22:51:02.447Z,76.80
2018-03-02T22:53:28.968Z,75.60
2018-03-02T22:55:55.448Z,75.60
2018-03-02T22:58:21.866Z,75.00
2018-03-02T23:00:48.464Z,74.70
2018-03-02T23:03:15.465Z,75.50
2018-03-02T23:05:41.672Z,74.90
2018-03-02T23:08:08.737Z,74.90
2018-03-02T23:10:35.718Z,76.30
2018-03-02T23:13:02.106Z,74.90
2018-03-02T23:15:28.977Z,75.50
2018-03-02T23:17:55.224Z,74.80
2018-03-02T23:20:21.437Z,75.20
2018-03-02T23:22:47.912Z,75.30
2018-03-02T23:25:14.912Z,75.10
2018-03-02T23:27:41.234Z,75.50
2018-03-02T23:30:08.719Z,75.50
2018-03-02T23:32:35.732Z,76.00
2018-03-02T23:35:02.068Z,75.90
2018-03-02T23:37:28.250Z,75.80
2018-03-02T23:39:55.230Z,76.30
2018-03-02T23:42:21.492Z,75.40
2018-03-02T23:44:47.708Z,75.60
2018-03-02T23:47:13.914Z,75.60
2018-03-02T23:49:40.910Z,75.80
2018-03-02T23:52:07.833Z,75.10
2018-03-02T23:54:34.052Z,75.60
2018-03-02T23:57:00.231Z,75.40
2018-03-02T23:59:27.210Z,76.10
